This is the latest recevied weather packets stored in our database for station/object KB0BS-13. If no packets are shown the sender has not sent any weather packets the latest 10 day(s).
| Time | Temp. | Humidity | Pressure | Rain* | Wind** | Luminosity | Snow |
|---|---|---|---|---|---|---|---|
| 1777784892 | -1.11° C | 91% | 1013.3 hPa | 0 mm | - | 0 W/m² | - |
| 1777784588 | -0.56° C | 89% | 1013.4 hPa | 0 mm | - | 0 W/m² | - |
| 1777784286 | 0° C | 85% | 1013.5 hPa | 0 mm | - | 0 W/m² | - |
| 1777783984 | 0.56° C | 82% | 1013.2 hPa | 0 mm | - | 0 W/m² | - |
| 1777783680 | 0.56° C | 82% | 1013.4 hPa | 0 mm | - | 0 W/m² | - |
| 1777783377 | 0.56° C | 82% | 1013.6 hPa | 0 mm | - | 0 W/m² | - |
| 1777783074 | 0.56° C | 83% | 1013.5 hPa | 0 mm | - | 0 W/m² | - |
| 1777782771 | 0.56° C | 81% | 1013.6 hPa | 0 mm | - | 0 W/m² | - |
| 1777782467 | 1.11° C | 79% | 1013.5 hPa | 0 mm | - | 0 W/m² | - |
| 1777782164 | 0.56° C | 79% | 1013.7 hPa | 0 mm | - | 0 W/m² | - |
| 1777781860 | 0.56° C | 81% | 1013.7 hPa | 0 mm | - | 0 W/m² | - |
| 1777781557 | 0.56° C | 82% | 1013.7 hPa | 0 mm | - | 0 W/m² | - |
| 1777781255 | 0° C | 83% | 1013.7 hPa | 0 mm | - | 0 W/m² | - |
| 1777780947 | 0.56° C | 83% | 1013.8 hPa | 0 mm | - | 0 W/m² | - |
| 1777780643 | 1.11° C | 80% | 1013.9 hPa | 0 mm | - | 0 W/m² | - |
| 1777780341 | 1.11° C | 79% | 1013.8 hPa | 0 mm | - | 0 W/m² | - |
| 1777780038 | 1.11° C | 78% | 1013.7 hPa | 0 mm | - | 0 W/m² | - |
| 1777779734 | 1.11° C | 78% | 1013.9 hPa | 0 mm | - | 0 W/m² | - |
| 1777779432 | 1.11° C | 79% | 1013.9 hPa | 0 mm | - | 0 W/m² | - |
| 1777779129 | 1.11° C | 79% | 1014 hPa | 0 mm | - | 0 W/m² | - |
| 1777778828 | 1.11° C | 78% | 1014 hPa | 0 mm | - | 0 W/m² | - |
| 1777778526 | 1.11° C | 79% | 1014 hPa | 0 mm | - | 0 W/m² | - |
| 1777778222 | 1.11° C | 80% | 1014.1 hPa | 0 mm | - | 0 W/m² | - |
| 1777777920 | 1.67° C | 78% | 1014.1 hPa | 0 mm | - | 0 W/m² | - |
| 1777777616 | 1.67° C | 75% | 1014.3 hPa | 0 mm | - | 0 W/m² | - |
* Rain latest hour (hover to see other rain measurements)
** Current wind speed in m/s (hover to see current wind gust speed)